createdAt,value
2022-11-29T00:00:53.564Z,8.12
2022-11-29T00:01:53.652Z,8.10
2022-11-29T00:02:53.586Z,8.07
2022-11-29T00:03:53.513Z,8.07
2022-11-29T00:04:53.515Z,8.07
2022-11-29T00:05:53.508Z,8.07
2022-11-29T00:06:53.519Z,8.08
2022-11-29T00:07:53.495Z,8.10
2022-11-29T00:08:53.479Z,8.10
2022-11-29T00:09:53.449Z,8.08
2022-11-29T00:10:53.440Z,8.11
2022-11-29T00:11:53.442Z,8.12
2022-11-29T00:12:53.424Z,8.12
2022-11-29T00:13:53.415Z,8.12
2022-11-29T00:14:53.399Z,8.11
2022-11-29T00:15:53.402Z,8.10
2022-11-29T00:16:53.438Z,8.10
2022-11-29T00:17:53.351Z,8.12
2022-11-29T00:18:53.350Z,8.16
2022-11-29T00:19:53.341Z,8.18
2022-11-29T00:20:53.324Z,8.19
2022-11-29T00:21:53.352Z,8.19
2022-11-29T00:22:53.301Z,8.18
2022-11-29T00:23:53.299Z,8.18
2022-11-29T00:24:53.269Z,8.15
2022-11-29T00:25:53.315Z,8.12
2022-11-29T00:26:53.268Z,8.12
2022-11-29T00:27:53.240Z,8.11
2022-11-29T00:28:53.246Z,8.16
2022-11-29T00:29:53.228Z,8.16
2022-11-29T00:30:53.252Z,8.18
2022-11-29T00:31:53.203Z,8.16
2022-11-29T00:32:53.201Z,8.18
2022-11-29T00:33:53.173Z,8.18
2022-11-29T00:34:53.163Z,8.15
2022-11-29T00:35:53.154Z,8.15
2022-11-29T00:36:53.181Z,8.12
2022-11-29T00:37:53.132Z,8.12
2022-11-29T00:38:53.113Z,8.12
2022-11-29T00:39:53.116Z,8.15
2022-11-29T00:40:53.091Z,8.11
2022-11-29T00:41:53.122Z,8.11
2022-11-29T00:42:53.095Z,8.10
2022-11-29T00:43:53.082Z,8.10
2022-11-29T00:44:53.043Z,8.11
2022-11-29T00:45:53.083Z,8.12
2022-11-29T00:46:53.076Z,8.11
2022-11-29T00:47:53.025Z,8.08
2022-11-29T00:48:53.010Z,8.10
2022-11-29T00:49:52.994Z,8.08
2022-11-29T00:50:53.023Z,8.08
2022-11-29T00:51:52.972Z,8.08
2022-11-29T00:52:52.963Z,8.10
2022-11-29T00:53:52.959Z,8.08
2022-11-29T00:54:52.936Z,8.08
2022-11-29T00:55:52.944Z,8.08
2022-11-29T00:56:52.929Z,8.08
2022-11-29T00:57:52.914Z,8.08
2022-11-29T00:58:52.883Z,8.08
2022-11-29T00:59:52.885Z,8.10
2022-11-29T01:00:52.933Z,8.10
2022-11-29T01:01:52.874Z,8.10
2022-11-29T01:02:52.853Z,8.08
2022-11-29T01:03:52.890Z,8.08
2022-11-29T01:04:52.844Z,8.10
2022-11-29T01:05:52.819Z,8.10
2022-11-29T01:06:52.892Z,8.11
2022-11-29T01:07:52.811Z,8.11
2022-11-29T01:08:52.775Z,8.12
2022-11-29T01:09:52.755Z,8.15
2022-11-29T01:10:52.778Z,8.12
2022-11-29T01:11:52.755Z,8.15
2022-11-29T01:12:52.725Z,8.15
2022-11-29T01:13:52.727Z,8.15
2022-11-29T01:14:52.725Z,8.16
2022-11-29T01:15:52.717Z,8.16
2022-11-29T01:16:52.758Z,8.16
2022-11-29T01:17:52.685Z,8.15
2022-11-29T01:18:52.666Z,8.16
2022-11-29T01:19:52.657Z,8.18
2022-11-29T01:20:52.659Z,8.18
2022-11-29T01:21:52.666Z,8.16
2022-11-29T01:22:52.617Z,8.19
2022-11-29T01:23:52.616Z,8.20
2022-11-29T01:24:52.614Z,8.23
2022-11-29T01:25:52.595Z,8.23
2022-11-29T01:26:52.619Z,8.22
2022-11-29T01:27:52.913Z,8.20
2022-11-29T01:28:52.558Z,8.20
2022-11-29T01:29:52.538Z,8.23
2022-11-29T01:30:52.584Z,8.25
2022-11-29T01:31:52.547Z,8.25
2022-11-29T01:32:52.505Z,8.25
2022-11-29T01:33:52.507Z,8.23
2022-11-29T01:34:52.497Z,8.26
2022-11-29T01:35:52.496Z,8.25
2022-11-29T01:36:52.504Z,8.26
2022-11-29T01:37:52.776Z,8.23
2022-11-29T01:38:52.453Z,8.22
2022-11-29T01:39:52.459Z,8.22
2022-11-29T01:40:52.421Z,8.20
2022-11-29T01:41:52.428Z,8.20
2022-11-29T01:42:52.389Z,8.19
2022-11-29T01:43:52.396Z,8.19
2022-11-29T01:44:52.388Z,8.20
2022-11-29T01:45:52.401Z,8.18
2022-11-29T01:46:52.388Z,8.18
2022-11-29T01:47:52.449Z,8.22
2022-11-29T01:48:52.339Z,8.22
2022-11-29T01:49:52.311Z,8.22
2022-11-29T01:50:52.305Z,8.19
2022-11-29T01:51:52.319Z,8.19
2022-11-29T01:52:52.289Z,8.22
2022-11-29T01:53:52.269Z,8.23
2022-11-29T01:54:52.269Z,8.23
2022-11-29T01:55:52.268Z,8.22
2022-11-29T01:56:56.289Z,8.20
2022-11-29T01:57:52.314Z,8.20
2022-11-29T01:58:52.337Z,8.22
2022-11-29T01:59:52.214Z,8.22
2022-11-29T02:00:52.252Z,8.22
2022-11-29T02:01:52.204Z,8.20
2022-11-29T02:02:52.277Z,8.19
2022-11-29T02:03:52.159Z,8.18
2022-11-29T02:04:52.152Z,8.18
2022-11-29T02:05:52.132Z,8.18
2022-11-29T02:06:52.151Z,8.19
2022-11-29T02:07:52.213Z,8.19
2022-11-29T02:08:52.115Z,8.18
2022-11-29T02:09:52.101Z,8.15
2022-11-29T02:10:52.099Z,8.12
2022-11-29T02:11:52.090Z,8.12
2022-11-29T02:12:52.072Z,8.11
2022-11-29T02:13:52.046Z,8.12
2022-11-29T02:14:52.044Z,8.15
2022-11-29T02:15:52.048Z,8.15
2022-11-29T02:16:56.444Z,8.12
2022-11-29T02:17:52.014Z,8.15
2022-11-29T02:18:51.992Z,8.16
2022-11-29T02:19:51.992Z,8.19
2022-11-29T02:20:51.976Z,8.22
2022-11-29T02:21:51.984Z,8.22
2022-11-29T02:22:51.989Z,8.20
2022-11-29T02:23:51.951Z,8.18
2022-11-29T02:24:51.933Z,8.15
2022-11-29T02:25:51.934Z,8.11
2022-11-29T02:26:51.954Z,8.11
2022-11-29T02:27:51.893Z,8.11
2022-11-29T02:28:51.876Z,8.10
2022-11-29T02:29:51.893Z,8.11
2022-11-29T02:30:51.908Z,8.10
2022-11-29T02:31:51.984Z,8.10
2022-11-29T02:32:51.844Z,8.10
2022-11-29T02:33:51.835Z,8.10
2022-11-29T02:34:51.822Z,8.10
2022-11-29T02:35:51.806Z,8.11
2022-11-29T02:36:51.866Z,8.11
2022-11-29T02:37:51.793Z,8.11
2022-11-29T02:38:51.764Z,8.10
2022-11-29T02:39:51.772Z,8.11
2022-11-29T02:40:51.767Z,8.18
2022-11-29T02:41:51.764Z,8.18
2022-11-29T02:42:56.529Z,8.18
2022-11-29T02:43:52.732Z,8.16
2022-11-29T02:44:51.707Z,8.15
2022-11-29T02:45:51.779Z,8.15
2022-11-29T02:46:51.705Z,8.15
2022-11-29T02:47:51.723Z,8.12
2022-11-29T02:48:51.656Z,8.16
2022-11-29T02:49:51.655Z,8.15
2022-11-29T02:50:51.655Z,8.16
2022-11-29T02:51:51.626Z,8.18
2022-11-29T02:52:51.635Z,8.18
2022-11-29T02:53:51.605Z,8.18
2022-11-29T02:54:51.634Z,8.19
2022-11-29T02:55:51.576Z,8.19
2022-11-29T02:56:51.646Z,8.18
2022-11-29T02:57:51.606Z,8.18
2022-11-29T02:58:51.544Z,8.16
2022-11-29T02:59:51.531Z,8.19
2022-11-29T03:00:51.526Z,8.18
2022-11-29T03:01:51.558Z,8.16
2022-11-29T03:02:51.586Z,8.19
2022-11-29T03:03:51.503Z,8.18
2022-11-29T03:04:51.488Z,8.18
2022-11-29T03:05:51.468Z,8.16
2022-11-29T03:06:51.496Z,8.19
2022-11-29T03:07:51.523Z,8.22
2022-11-29T03:08:51.436Z,8.22
2022-11-29T03:09:51.430Z,8.22
2022-11-29T03:10:51.427Z,8.22
2022-11-29T03:11:51.416Z,8.23
2022-11-29T03:12:51.420Z,8.20
2022-11-29T03:13:51.377Z,8.20
2022-11-29T03:14:51.377Z,8.19
2022-11-29T03:15:51.409Z,8.18
2022-11-29T03:16:51.356Z,8.19
2022-11-29T03:17:51.339Z,8.19
2022-11-29T03:18:51.321Z,8.22
2022-11-29T03:19:51.308Z,8.23
2022-11-29T03:20:51.299Z,8.22
2022-11-29T03:21:51.298Z,8.22
2022-11-29T03:22:51.279Z,8.23
2022-11-29T03:23:51.257Z,8.23
2022-11-29T03:24:51.259Z,8.25
2022-11-29T03:25:51.257Z,8.25
2022-11-29T03:26:51.228Z,8.26
2022-11-29T03:27:51.259Z,8.26
2022-11-29T03:28:51.265Z,8.25
2022-11-29T03:29:51.211Z,8.25
2022-11-29T03:30:51.252Z,8.23
2022-11-29T03:31:51.190Z,8.25
2022-11-29T03:32:51.179Z,8.23
2022-11-29T03:33:51.151Z,8.25
2022-11-29T03:34:55.759Z,8.23
2022-11-29T03:35:52.141Z,8.25
2022-11-29T03:36:51.130Z,8.25
2022-11-29T03:37:51.124Z,8.25
2022-11-29T03:38:51.114Z,8.26
2022-11-29T03:39:51.100Z,8.28
2022-11-29T03:40:51.070Z,8.28
2022-11-29T03:41:51.092Z,8.26
2022-11-29T03:42:51.050Z,8.25
2022-11-29T03:43:51.042Z,8.26
2022-11-29T03:44:51.029Z,8.26
2022-11-29T03:45:51.027Z,8.29
2022-11-29T03:46:51.012Z,8.30
2022-11-29T03:47:51.009Z,8.30
2022-11-29T03:48:51.252Z,8.30
2022-11-29T03:49:50.999Z,8.28
2022-11-29T03:50:50.970Z,8.23
2022-11-29T03:51:50.988Z,8.23
2022-11-29T03:52:50.973Z,8.23
2022-11-29T03:53:50.924Z,8.23
2022-11-29T03:54:50.914Z,8.23
2022-11-29T03:55:50.914Z,8.25
2022-11-29T03:56:50.903Z,8.25
2022-11-29T03:57:50.925Z,8.22
2022-11-29T03:58:50.882Z,8.23
2022-11-29T03:59:50.871Z,8.25
2022-11-29T04:00:50.861Z,8.28
2022-11-29T04:01:50.896Z,8.28
2022-11-29T04:02:50.993Z,8.26
2022-11-29T04:03:50.825Z,8.26
2022-11-29T04:04:50.802Z,8.26
2022-11-29T04:05:50.802Z,8.25
2022-11-29T04:06:50.815Z,8.26
2022-11-29T04:07:50.832Z,8.26
2022-11-29T04:08:50.756Z,8.28
2022-11-29T04:09:50.763Z,8.28
2022-11-29T04:10:50.770Z,8.26
2022-11-29T04:11:51.004Z,8.26
2022-11-29T04:12:50.726Z,8.28
2022-11-29T04:13:50.713Z,8.29
2022-11-29T04:14:50.698Z,8.29
2022-11-29T04:15:50.730Z,8.28
2022-11-29T04:16:50.694Z,8.28
2022-11-29T04:17:50.663Z,8.33
2022-11-29T04:18:50.664Z,8.34
2022-11-29T04:19:50.644Z,8.37
2022-11-29T04:20:50.638Z,8.38
2022-11-29T04:21:50.614Z,8.40
2022-11-29T04:22:50.615Z,8.41
2022-11-29T04:23:50.607Z,8.40
2022-11-29T04:24:50.584Z,8.40
2022-11-29T04:25:50.566Z,8.38
2022-11-29T04:26:50.567Z,8.37
2022-11-29T04:27:50.568Z,8.37
2022-11-29T04:28:50.555Z,8.37
2022-11-29T04:29:50.536Z,8.37
2022-11-29T04:30:50.547Z,8.38
2022-11-29T04:31:50.516Z,8.38
2022-11-29T04:32:50.501Z,8.37
2022-11-29T04:33:50.514Z,8.37
2022-11-29T04:34:50.476Z,8.36
2022-11-29T04:35:50.453Z,8.37
2022-11-29T04:36:50.464Z,8.36
2022-11-29T04:37:50.444Z,8.36
2022-11-29T04:38:50.442Z,8.36
2022-11-29T04:39:50.413Z,8.34
2022-11-29T04:40:50.414Z,8.36
2022-11-29T04:41:50.398Z,8.34
2022-11-29T04:42:50.384Z,8.36
2022-11-29T04:43:50.385Z,8.37
2022-11-29T04:44:50.386Z,8.38
2022-11-29T04:45:50.337Z,8.37
2022-11-29T04:46:50.335Z,8.40
2022-11-29T04:47:50.337Z,8.38
2022-11-29T04:48:50.336Z,8.38
2022-11-29T04:49:50.297Z,8.38
2022-11-29T04:50:50.342Z,8.38
2022-11-29T04:51:50.286Z,8.40
2022-11-29T04:52:50.278Z,8.40
2022-11-29T04:53:50.274Z,8.43
2022-11-29T04:54:50.254Z,8.45
2022-11-29T04:55:50.261Z,8.45
2022-11-29T04:56:50.217Z,8.47
2022-11-29T04:57:50.243Z,8.45
2022-11-29T04:58:50.198Z,8.45
2022-11-29T04:59:50.177Z,8.47
2022-11-29T05:00:50.189Z,8.45
2022-11-29T05:01:50.302Z,8.48
2022-11-29T05:02:50.220Z,8.48
2022-11-29T05:03:55.423Z,8.48
2022-11-29T05:04:51.138Z,8.48
2022-11-29T05:05:50.120Z,8.47
2022-11-29T05:06:50.113Z,8.48
2022-11-29T05:07:50.122Z,8.48
2022-11-29T05:08:50.099Z,8.48
2022-11-29T05:09:50.112Z,8.50
2022-11-29T05:10:50.062Z,8.52
2022-11-29T05:11:50.075Z,8.50
2022-11-29T05:12:50.038Z,8.52
2022-11-29T05:13:50.048Z,8.52
2022-11-29T05:14:50.024Z,8.56
2022-11-29T05:15:50.179Z,8.58
2022-11-29T05:16:49.999Z,8.56
2022-11-29T05:17:49.974Z,8.55
2022-11-29T05:18:49.994Z,8.56
2022-11-29T05:19:49.949Z,8.56
2022-11-29T05:20:49.951Z,8.56
2022-11-29T05:21:49.943Z,8.55
2022-11-29T05:22:49.950Z,8.56
2022-11-29T05:23:49.948Z,8.59
2022-11-29T05:24:50.021Z,8.58
2022-11-29T05:25:49.910Z,8.62
2022-11-29T05:26:49.888Z,8.61
2022-11-29T05:27:49.871Z,8.61
2022-11-29T05:28:49.891Z,8.61
2022-11-29T05:29:49.855Z,8.63
2022-11-29T05:30:49.894Z,8.65
2022-11-29T05:31:49.832Z,8.68
2022-11-29T05:32:49.839Z,8.70
2022-11-29T05:33:49.832Z,8.71
2022-11-29T05:34:50.289Z,8.73
2022-11-29T05:35:49.784Z,8.77
2022-11-29T05:36:49.773Z,8.73
2022-11-29T05:37:49.760Z,8.74
2022-11-29T05:38:49.761Z,8.77
2022-11-29T05:39:49.783Z,8.77
2022-11-29T05:40:49.744Z,8.79
2022-11-29T05:41:49.715Z,8.77
2022-11-29T05:42:49.722Z,8.76
2022-11-29T05:43:49.722Z,8.76
2022-11-29T05:44:49.682Z,8.76
2022-11-29T05:45:49.673Z,8.79
2022-11-29T05:46:49.763Z,8.80
2022-11-29T05:47:49.718Z,8.76
2022-11-29T05:48:49.633Z,8.76
2022-11-29T05:49:49.662Z,8.80
2022-11-29T05:50:49.614Z,8.77
2022-11-29T05:51:49.604Z,8.77
2022-11-29T05:52:49.605Z,8.79
2022-11-29T05:53:49.594Z,8.80
2022-11-29T05:54:49.588Z,8.81
2022-11-29T05:55:49.561Z,8.80
2022-11-29T05:56:49.562Z,8.81
2022-11-29T05:57:49.532Z,8.81
2022-11-29T05:58:49.520Z,8.79
2022-11-29T05:59:49.551Z,8.79
2022-11-29T06:00:49.534Z,8.79
2022-11-29T06:01:49.551Z,8.76
2022-11-29T06:02:49.556Z,8.74
2022-11-29T06:03:49.555Z,8.76
2022-11-29T06:04:49.478Z,8.77
2022-11-29T06:05:49.464Z,8.79
2022-11-29T06:06:49.445Z,8.81
2022-11-29T06:07:49.441Z,8.79
2022-11-29T06:08:49.404Z,8.79
2022-11-29T06:09:49.425Z,8.80
2022-11-29T06:10:49.397Z,8.79
2022-11-29T06:11:49.382Z,8.77
2022-11-29T06:12:49.375Z,8.76
2022-11-29T06:13:49.365Z,8.74
2022-11-29T06:14:49.643Z,8.74
2022-11-29T06:15:49.360Z,8.74
2022-11-29T06:16:49.333Z,8.73
2022-11-29T06:17:49.337Z,8.74
2022-11-29T06:18:50.089Z,8.76
2022-11-29T06:19:49.405Z,8.77
2022-11-29T06:20:49.291Z,8.79
2022-11-29T06:21:49.286Z,8.79
2022-11-29T06:22:49.327Z,8.81
2022-11-29T06:23:49.247Z,8.81
2022-11-29T06:24:49.244Z,8.81
2022-11-29T06:25:50.356Z,8.81
2022-11-29T06:26:49.213Z,8.80
2022-11-29T06:27:49.199Z,8.81
2022-11-29T06:28:49.785Z,8.81
2022-11-29T06:29:49.167Z,8.80
2022-11-29T06:30:49.166Z,8.81
2022-11-29T06:31:49.480Z,8.84
2022-11-29T06:32:49.126Z,8.86
2022-11-29T06:33:49.154Z,8.87
2022-11-29T06:34:49.170Z,8.87
2022-11-29T06:35:49.530Z,8.91
2022-11-29T06:36:49.108Z,8.89
2022-11-29T06:37:49.132Z,8.89
2022-11-29T06:38:49.105Z,8.89
2022-11-29T06:39:49.060Z,8.87
2022-11-29T06:40:49.058Z,8.83
2022-11-29T06:41:49.045Z,8.81
2022-11-29T06:42:49.082Z,8.79
2022-11-29T06:43:49.064Z,8.79
2022-11-29T06:44:49.020Z,8.80
2022-11-29T06:45:48.992Z,8.79
2022-11-29T06:46:49.036Z,8.77
2022-11-29T06:47:48.989Z,8.76
2022-11-29T06:48:48.979Z,8.76
2022-11-29T06:49:48.960Z,8.77
2022-11-29T06:50:48.960Z,8.79
2022-11-29T06:51:48.937Z,8.76
2022-11-29T06:52:48.962Z,8.74
2022-11-29T06:53:48.909Z,8.74
2022-11-29T06:54:49.169Z,8.73
2022-11-29T06:55:48.891Z,8.71
2022-11-29T06:56:48.870Z,8.71
2022-11-29T06:57:48.879Z,8.68
2022-11-29T06:58:48.869Z,8.70
2022-11-29T06:59:48.878Z,8.70
2022-11-29T07:00:49.871Z,8.71
2022-11-29T07:01:48.847Z,8.73
2022-11-29T07:02:48.800Z,8.73
2022-11-29T07:03:48.800Z,8.73
2022-11-29T07:04:48.975Z,8.71
2022-11-29T07:05:48.773Z,8.71
2022-11-29T07:06:48.741Z,8.71
2022-11-29T07:07:48.815Z,8.71
2022-11-29T07:08:48.730Z,8.70
2022-11-29T07:09:48.721Z,8.71
2022-11-29T07:10:48.701Z,8.71
2022-11-29T07:11:48.710Z,8.73
2022-11-29T07:12:48.689Z,8.73
2022-11-29T07:13:49.630Z,8.70
2022-11-29T07:14:48.691Z,8.70
2022-11-29T07:15:48.719Z,8.66
2022-11-29T07:16:52.016Z,8.66
2022-11-29T07:17:49.633Z,8.65
2022-11-29T07:18:48.611Z,8.66
2022-11-29T07:19:48.604Z,8.65
2022-11-29T07:20:48.625Z,8.65
2022-11-29T07:21:48.587Z,8.63
2022-11-29T07:22:48.625Z,8.63
2022-11-29T07:23:56.117Z,8.63
2022-11-29T07:24:48.599Z,8.66
2022-11-29T07:25:57.167Z,8.65
2022-11-29T07:26:59.595Z,8.65
2022-11-29T07:27:48.567Z,8.68
2022-11-29T07:28:56.761Z,8.71
2022-11-29T07:29:48.599Z,8.74
2022-11-29T07:30:56.749Z,8.68
2022-11-29T07:31:48.541Z,8.65
2022-11-29T07:32:50.915Z,8.62
2022-11-29T07:33:48.482Z,8.63
2022-11-29T07:34:48.543Z,8.63
2022-11-29T07:35:48.429Z,8.63
2022-11-29T07:36:52.324Z,8.65
2022-11-29T07:37:48.388Z,8.66
2022-11-29T07:38:48.419Z,8.65
2022-11-29T07:39:48.390Z,8.63
2022-11-29T07:40:48.382Z,8.65
2022-11-29T07:41:48.378Z,8.66
2022-11-29T07:42:48.351Z,8.66
2022-11-29T07:43:48.331Z,8.65
2022-11-29T07:44:48.477Z,8.68
2022-11-29T07:45:48.322Z,8.66
2022-11-29T07:46:48.352Z,8.63
2022-11-29T07:47:48.313Z,8.63
2022-11-29T07:48:48.310Z,8.62
2022-11-29T07:49:48.267Z,8.63
2022-11-29T07:50:48.551Z,8.66
2022-11-29T07:51:48.250Z,8.70
2022-11-29T07:52:48.232Z,8.66
2022-11-29T07:53:48.232Z,8.66
2022-11-29T07:54:48.332Z,8.70
2022-11-29T07:55:48.209Z,8.66
2022-11-29T07:56:48.181Z,8.71
2022-11-29T07:57:48.183Z,8.71
2022-11-29T07:58:48.217Z,8.71
2022-11-29T07:59:48.157Z,8.70
2022-11-29T08:00:48.233Z,8.70
2022-11-29T08:01:48.255Z,8.68
2022-11-29T08:02:48.122Z,8.70
2022-11-29T08:03:48.111Z,8.68
2022-11-29T08:04:48.335Z,8.66
2022-11-29T08:05:48.108Z,8.65
2022-11-29T08:06:48.076Z,8.68
2022-11-29T08:07:48.118Z,8.63
2022-11-29T08:08:48.092Z,8.63
2022-11-29T08:09:48.157Z,8.65
2022-11-29T08:10:48.047Z,8.63
2022-11-29T08:11:48.032Z,8.65
2022-11-29T08:12:48.031Z,8.66
2022-11-29T08:13:48.024Z,8.65
2022-11-29T08:14:48.146Z,8.65
2022-11-29T08:15:48.012Z,8.62
2022-11-29T08:16:47.996Z,8.63
2022-11-29T08:17:47.943Z,8.66
2022-11-29T08:18:48.496Z,8.66
2022-11-29T08:19:47.972Z,8.70
2022-11-29T08:20:47.934Z,8.70
2022-11-29T08:21:47.922Z,8.66
2022-11-29T08:22:47.905Z,8.66
2022-11-29T08:23:47.884Z,8.66
2022-11-29T08:24:48.132Z,8.65
2022-11-29T08:25:47.883Z,8.65
2022-11-29T08:26:47.873Z,8.65
2022-11-29T08:27:47.835Z,8.65
2022-11-29T08:28:47.846Z,8.62
2022-11-29T08:29:47.825Z,8.61
2022-11-29T08:30:47.862Z,8.62
2022-11-29T08:31:47.824Z,8.62
2022-11-29T08:32:51.358Z,8.66
2022-11-29T08:33:47.797Z,8.65
2022-11-29T08:34:48.032Z,8.66
2022-11-29T08:35:47.775Z,8.65
2022-11-29T08:36:47.780Z,8.68
2022-11-29T08:37:47.762Z,8.65
2022-11-29T08:38:47.817Z,8.62
2022-11-29T08:39:47.761Z,8.61
2022-11-29T08:40:49.545Z,8.61
2022-11-29T08:41:47.696Z,8.66
2022-11-29T08:42:47.717Z,8.68
2022-11-29T08:43:48.005Z,8.70
2022-11-29T08:44:47.814Z,8.70
2022-11-29T08:45:47.732Z,8.68
2022-11-29T08:46:47.647Z,8.63
2022-11-29T08:47:47.622Z,8.68
2022-11-29T08:48:47.646Z,8.66
2022-11-29T08:49:47.641Z,8.65
2022-11-29T08:50:47.587Z,8.62
2022-11-29T08:51:47.576Z,8.63
2022-11-29T08:52:47.576Z,8.65
2022-11-29T08:53:47.557Z,8.66
2022-11-29T08:54:47.895Z,8.63
2022-11-29T08:55:47.536Z,8.65
2022-11-29T08:57:30.976Z,8.65
2022-11-29T08:57:48.501Z,8.71
2022-11-29T08:58:47.486Z,8.70
2022-11-29T08:59:47.495Z,8.66
2022-11-29T09:00:47.567Z,8.66
2022-11-29T09:01:47.540Z,8.66
2022-11-29T09:02:47.510Z,8.68
2022-11-29T09:03:47.447Z,8.70
2022-11-29T09:04:47.443Z,8.74
2022-11-29T09:05:47.447Z,8.79
2022-11-29T09:06:47.399Z,8.80
2022-11-29T09:07:47.552Z,8.79
2022-11-29T09:08:47.375Z,8.81
2022-11-29T09:09:47.381Z,8.81
2022-11-29T09:10:47.366Z,8.79
2022-11-29T09:11:49.599Z,8.80
2022-11-29T09:12:47.376Z,8.83
2022-11-29T09:13:47.338Z,8.83
2022-11-29T09:14:47.409Z,8.83
2022-11-29T09:15:47.334Z,8.84
2022-11-29T09:16:47.334Z,8.86
2022-11-29T09:17:47.297Z,8.84
2022-11-29T09:18:51.464Z,8.86
2022-11-29T09:19:47.272Z,8.87
2022-11-29T09:20:47.244Z,8.84
2022-11-29T09:21:47.241Z,8.86
2022-11-29T09:22:47.229Z,8.89
2022-11-29T09:23:47.268Z,8.87
2022-11-29T09:24:47.579Z,8.92
2022-11-29T09:25:47.193Z,8.89
2022-11-29T09:26:47.210Z,8.91
2022-11-29T09:27:47.150Z,8.91
2022-11-29T09:28:47.142Z,8.87
2022-11-29T09:29:47.143Z,8.87
2022-11-29T09:30:47.152Z,8.83
2022-11-29T09:31:47.182Z,8.80
2022-11-29T09:32:47.100Z,8.81
2022-11-29T09:33:47.122Z,8.81
2022-11-29T09:34:47.583Z,8.86
2022-11-29T09:35:47.082Z,8.84
2022-11-29T09:36:47.190Z,8.84
2022-11-29T09:37:47.062Z,8.86
2022-11-29T09:38:47.041Z,8.87
2022-11-29T09:39:47.049Z,8.87
2022-11-29T09:40:47.064Z,8.91
2022-11-29T09:41:48.538Z,8.91
2022-11-29T09:42:47.045Z,8.91
2022-11-29T09:43:47.009Z,8.91
2022-11-29T09:44:47.393Z,8.92
2022-11-29T09:45:47.031Z,8.91
2022-11-29T09:46:46.973Z,8.86
2022-11-29T09:47:46.942Z,8.83
2022-11-29T09:48:46.968Z,8.84
2022-11-29T09:49:46.925Z,8.83
2022-11-29T09:50:46.916Z,8.84
2022-11-29T09:51:46.913Z,8.84
2022-11-29T09:52:46.903Z,8.84
2022-11-29T09:53:46.895Z,8.84
2022-11-29T09:54:47.111Z,8.83
2022-11-29T09:55:47.133Z,8.81
2022-11-29T09:56:46.856Z,8.83
2022-11-29T09:57:46.862Z,8.81
2022-11-29T09:58:46.825Z,8.80
2022-11-29T09:59:46.825Z,8.81
2022-11-29T10:00:46.831Z,8.84
2022-11-29T10:01:46.796Z,8.84
2022-11-29T10:02:46.819Z,8.83
2022-11-29T10:03:46.799Z,8.79
2022-11-29T10:04:47.024Z,8.74
2022-11-29T10:05:46.766Z,8.74
2022-11-29T10:06:46.724Z,8.74
2022-11-29T10:07:46.794Z,8.74
2022-11-29T10:08:46.703Z,8.76
2022-11-29T10:09:46.710Z,8.76
2022-11-29T10:10:46.678Z,8.74
2022-11-29T10:11:46.686Z,8.74
2022-11-29T10:12:46.695Z,8.76
2022-11-29T10:13:46.654Z,8.76
2022-11-29T10:14:46.890Z,8.77
2022-11-29T10:15:46.637Z,8.79
2022-11-29T10:16:46.641Z,8.79
2022-11-29T10:17:46.613Z,8.79
2022-11-29T10:18:46.595Z,8.81
2022-11-29T10:19:47.515Z,8.76
2022-11-29T10:20:49.212Z,8.80
2022-11-29T10:21:46.565Z,8.83
2022-11-29T10:22:46.573Z,8.81
2022-11-29T10:23:46.578Z,8.80
2022-11-29T10:24:46.816Z,8.80
2022-11-29T10:25:46.524Z,8.79
2022-11-29T10:26:46.505Z,8.81
2022-11-29T10:27:46.495Z,8.83
2022-11-29T10:28:46.477Z,8.83
2022-11-29T10:29:46.486Z,8.86
2022-11-29T10:30:46.484Z,8.84
2022-11-29T10:31:46.448Z,8.87
2022-11-29T10:32:46.448Z,8.92
2022-11-29T10:33:46.416Z,8.98
2022-11-29T10:34:46.825Z,9.01
2022-11-29T10:35:46.405Z,8.98
2022-11-29T10:36:46.390Z,8.96
2022-11-29T10:38:07.838Z,8.99
2022-11-29T10:38:47.373Z,9.01
2022-11-29T10:39:46.356Z,8.98
2022-11-29T10:40:46.357Z,8.95
2022-11-29T10:41:46.364Z,8.96
2022-11-29T10:42:46.327Z,8.95
2022-11-29T10:43:46.299Z,8.94
2022-11-29T10:44:46.646Z,8.94
2022-11-29T10:45:46.314Z,8.95
2022-11-29T10:46:46.291Z,8.95
2022-11-29T10:47:46.277Z,8.99
2022-11-29T10:48:46.261Z,9.01
2022-11-29T10:49:46.251Z,9.02
2022-11-29T10:50:46.238Z,9.05
2022-11-29T10:51:46.218Z,9.10
2022-11-29T10:52:46.227Z,9.13
2022-11-29T10:53:46.192Z,9.17
2022-11-29T10:54:46.354Z,9.11
2022-11-29T10:55:46.192Z,9.11
2022-11-29T10:56:46.157Z,9.14
2022-11-29T10:57:46.178Z,9.14
2022-11-29T10:58:46.140Z,9.14
2022-11-29T10:59:46.129Z,9.15
2022-11-29T11:00:46.150Z,9.15
2022-11-29T11:01:46.129Z,9.17
2022-11-29T11:02:46.110Z,9.20
2022-11-29T11:03:49.014Z,9.21
2022-11-29T11:04:47.333Z,9.15
2022-11-29T11:05:46.155Z,9.14
2022-11-29T11:06:46.040Z,9.13
2022-11-29T11:07:46.118Z,9.13
2022-11-29T11:08:46.021Z,9.10
2022-11-29T11:09:46.041Z,9.10
2022-11-29T11:10:51.366Z,9.15
2022-11-29T11:11:46.998Z,9.15
2022-11-29T11:12:45.986Z,9.15
2022-11-29T11:13:46.031Z,9.17
2022-11-29T11:14:46.300Z,9.13
2022-11-29T11:15:45.944Z,9.11
2022-11-29T11:16:46.009Z,9.11
2022-11-29T11:17:45.941Z,9.14
2022-11-29T11:18:45.900Z,9.15
2022-11-29T11:19:45.921Z,9.15
2022-11-29T11:20:45.895Z,9.18
2022-11-29T11:21:45.887Z,9.14
2022-11-29T11:22:45.871Z,9.17
2022-11-29T11:23:45.872Z,9.20
2022-11-29T11:24:45.980Z,9.15
2022-11-29T11:25:45.831Z,9.13
2022-11-29T11:26:45.855Z,9.14
2022-11-29T11:27:45.812Z,9.13
2022-11-29T11:28:45.835Z,9.15
2022-11-29T11:29:45.792Z,9.20
2022-11-29T11:30:45.833Z,9.24
2022-11-29T11:31:45.753Z,9.23
2022-11-29T11:32:45.816Z,9.29
2022-11-29T11:33:45.775Z,9.33
2022-11-29T11:34:45.992Z,9.40
2022-11-29T11:35:45.711Z,9.46
2022-11-29T11:36:45.711Z,9.48
2022-11-29T11:37:45.710Z,9.46
2022-11-29T11:38:45.712Z,9.46
2022-11-29T11:39:45.727Z,9.43
2022-11-29T11:40:45.685Z,9.50
2022-11-29T11:41:45.653Z,9.53
2022-11-29T11:42:45.654Z,9.51
2022-11-29T11:43:45.677Z,9.51
2022-11-29T11:44:47.822Z,9.54
2022-11-29T11:45:45.636Z,9.53
2022-11-29T11:46:45.667Z,9.50
2022-11-29T11:47:45.596Z,9.51
2022-11-29T11:48:45.577Z,9.42
2022-11-29T11:49:45.567Z,9.47
2022-11-29T11:50:45.571Z,9.51
2022-11-29T11:51:45.533Z,9.54
2022-11-29T11:52:50.393Z,9.48
2022-11-29T11:53:46.535Z,9.48
2022-11-29T11:54:45.606Z,9.50
2022-11-29T11:55:45.497Z,9.51
2022-11-29T11:56:45.514Z,9.56
2022-11-29T11:57:45.606Z,9.48
2022-11-29T11:58:45.467Z,9.54
2022-11-29T11:59:45.457Z,9.56
2022-11-29T12:01:03.547Z,9.51
2022-11-29T12:01:46.420Z,9.48
2022-11-29T12:02:45.471Z,9.50
2022-11-29T12:03:45.517Z,9.54
2022-11-29T12:04:45.632Z,9.57
2022-11-29T12:05:46.476Z,9.54
2022-11-29T12:06:45.370Z,9.54
2022-11-29T12:08:07.296Z,9.50
2022-11-29T12:08:46.397Z,9.50
2022-11-29T12:09:45.329Z,9.50
2022-11-29T12:10:45.328Z,9.42
2022-11-29T12:11:45.300Z,9.40
2022-11-29T12:12:45.287Z,9.39
2022-11-29T12:13:45.307Z,9.40
2022-11-29T12:14:45.419Z,9.40
2022-11-29T12:15:45.296Z,9.36
2022-11-29T12:16:45.253Z,9.38
2022-11-29T12:17:45.228Z,9.40
2022-11-29T12:18:45.239Z,9.48
2022-11-29T12:19:45.218Z,9.48
2022-11-29T12:20:45.200Z,9.48
2022-11-29T12:21:45.179Z,9.51
2022-11-29T12:22:48.322Z,9.46
2022-11-29T12:23:45.179Z,9.43
2022-11-29T12:24:45.500Z,9.50
2022-11-29T12:25:45.199Z,9.54
2022-11-29T12:27:00.639Z,9.57
2022-11-29T12:27:46.119Z,9.61
2022-11-29T12:28:45.110Z,9.69
2022-11-29T12:29:45.119Z,9.58
2022-11-29T12:30:45.127Z,9.58
2022-11-29T12:31:45.060Z,9.61
2022-11-29T12:32:45.082Z,9.57
2022-11-29T12:33:45.047Z,9.58
2022-11-29T12:34:45.448Z,9.60
2022-11-29T12:35:45.032Z,9.60
2022-11-29T12:36:45.021Z,9.66
2022-11-29T12:37:44.990Z,9.71
2022-11-29T12:38:45.009Z,9.74
2022-11-29T12:39:44.979Z,9.79
2022-11-29T12:40:44.995Z,9.86
2022-11-29T12:41:49.529Z,9.81
2022-11-29T12:42:45.949Z,9.84
2022-11-29T12:43:44.946Z,9.84
2022-11-29T12:44:45.148Z,9.86
2022-11-29T12:45:44.911Z,9.81
2022-11-29T12:46:44.930Z,9.74
2022-11-29T12:47:50.348Z,9.69
2022-11-29T12:48:45.901Z,9.71
2022-11-29T12:49:44.871Z,9.71
2022-11-29T12:50:44.852Z,9.69
2022-11-29T12:51:44.845Z,9.68
2022-11-29T12:52:44.831Z,9.68
2022-11-29T12:53:44.821Z,9.71
2022-11-29T12:54:45.167Z,9.72
2022-11-29T12:55:44.806Z,9.72
2022-11-29T12:56:44.783Z,9.72
2022-11-29T12:57:44.755Z,9.75
2022-11-29T12:58:46.237Z,9.75
2022-11-29T12:59:44.756Z,9.75
2022-11-29T13:00:44.777Z,9.74
2022-11-29T13:01:44.802Z,9.65
2022-11-29T13:02:44.847Z,9.61
2022-11-29T13:03:44.705Z,9.60
2022-11-29T13:04:45.029Z,9.57
2022-11-29T13:05:44.685Z,9.60
2022-11-29T13:06:44.665Z,9.58
2022-11-29T13:07:44.710Z,9.57
2022-11-29T13:08:44.651Z,9.54
2022-11-29T13:09:44.873Z,9.50
2022-11-29T13:10:44.646Z,9.51
2022-11-29T13:11:44.625Z,9.51
2022-11-29T13:12:44.604Z,9.53
2022-11-29T13:13:44.589Z,9.54
2022-11-29T13:14:44.635Z,9.54
2022-11-29T13:15:44.627Z,9.53
2022-11-29T13:16:44.600Z,9.54
2022-11-29T13:17:44.551Z,9.56
2022-11-29T13:18:44.528Z,9.57